| Date | Time | Temp. (oF) | Dew Point (oF) | Rel. Hum. (%) | Press. (in.) | Wind Dir. | Wind Speed (mph) | Hourly Rainfall (in.) |
|
|---|---|---|---|---|---|---|---|---|---|
| 1 | 07/17 | 00:00 | 73 | 66 | 79 | 29.80 | NNW | 0 | 0.00 |
| 2 | 07/16 | 23:00 | 74 | 64 | 73 | 29.79 | N | 0 | 0.00 |
| 3 | 07/16 | 22:00 | 78 | 63 | 61 | 29.79 | N | 0 | 0.00 |
| 4 | 07/16 | 21:00 | 83 | 61 | 49 | 29.76 | N | 0 | 0.00 |
| 5 | 07/16 | 20:00 | 87 | 60 | 42 | 29.74 | W | 2 | 0.00 |
| 6 | 07/16 | 19:00 | 90 | 66 | 47 | 29.73 | WNW | 0 | 0.00 |
| 7 | 07/16 | 18:00 | 89 | 65 | 47 | 29.73 | SW | 4 | 0.00 |
| 8 | 07/16 | 17:00 | 89 | 65 | 47 | 29.73 | SSW | 4 | 0.00 |
| 9 | 07/16 | 16:00 | 91 | 68 | 48 | 29.75 | SW | 5 | 0.00 |
| 10 | 07/16 | 15:00 | 87 | 67 | 52 | 29.77 | WSW | 5 | 0.00 |
| 11 | 07/16 | 14:00 | 89 | 66 | 48 | 29.78 | W | 5 | 0.00 |
| 12 | 07/16 | 13:00 | 87 | 67 | 53 | 29.81 | NW | 5 | 0.00 |
| 13 | 07/16 | 12:00 | 86 | 68 | 56 | 29.82 | NNW | 3 | 0.00 |
| 14 | 07/16 | 11:00 | 83 | 69 | 65 | 29.83 | SW | 4 | 0.00 |
| 15 | 07/16 | 10:00 | 81 | 69 | 68 | 29.84 | WSW | 5 | 0.00 |
| 16 | 07/16 | 09:00 | 76 | 66 | 73 | 29.86 | WSW | 0 | 0.00 |
| 17 | 07/16 | 08:00 | 73 | 64 | 75 | 29.86 | SSW | 3 | 0.00 |
| 18 | 07/16 | 07:00 | 71 | 63 | 76 | 29.87 | SW | 4 | 0.00 |
| 19 | 07/16 | 06:00 | 71 | 62 | 75 | 29.88 | SSW | 0 | 0.00 |
| 20 | 07/16 | 05:00 | 72 | 63 | 75 | 29.88 | SW | 0 | 0.00 |
| 21 | 07/16 | 04:00 | 72 | 63 | 74 | 29.88 | S | 3 | 0.00 |
| 22 | 07/16 | 03:00 | 73 | 64 | 75 | 29.90 | SW | 7 | 0.00 |
| 23 | 07/16 | 02:00 | 74 | 63 | 70 | 29.90 | SSW | 6 | 0.00 |
| 24 | 07/16 | 01:00 | 74 | 62 | 67 | 29.92 | SSW | 11 | 0.00 |